Aviation Digital Data Service (ADDS)

Output produced by METARs form (1726 UTC 16 September 2014)
found at http://aviationweather.gov/adds/metars/
 
KAEX 161653Z 00000KT 10SM BKN070 29/22 A3007 RMK AO2 SLP184 T02940222